Time;durP1;ratioP1;P1;durP2;ratioP2;P2;SDS_P1;SDS_P2;PMS_P1;PMS_P2;Temp;Humidity;BMP_temperature;BMP_pressure;BME280_temperature;BME280_humidity;BME280_pressure;Samples;Min_cycle;Max_cycle;Signal;HPM_P1;HPM_P2
2021/10/20 00:00:33;;;;;;;;;14.75;12.50;;;;;22.48;100.00;100995.91;5066422;28;45343;-78
2021/10/20 00:02:58;;;;;;;;;13.25;11.25;;;;;22.44;100.00;100989.19;5074063;27;45652;-78
2021/10/20 00:05:24;;;;;;;;;12.25;9.25;;;;;22.44;100.00;100991.88;5084297;27;46134;-78
2021/10/20 00:07:50;;;;;;;;;11.50;10.75;;;;;22.37;100.00;100986.38;5082043;27;45421;-78
2021/10/20 00:10:17;;;;;;;;;12.25;9.50;;;;;22.35;100.00;100975.78;5082176;28;45455;-78
2021/10/20 00:12:44;;;;;;;;;15.00;11.50;;;;;22.42;100.00;100985.84;5077651;27;45753;-78
2021/10/20 00:15:13;;;;;;;;;15.25;11.25;;;;;22.43;100.00;100971.38;5074955;27;46191;-78
2021/10/20 00:17:39;;;;;;;;;12.00;12.00;;;;;22.41;100.00;100963.47;5072605;28;45604;-78
2021/10/20 00:20:08;;;;;;;;;9.50;9.50;;;;;22.43;100.00;100968.69;5081865;27;45428;-78
2021/10/20 00:22:36;;;;;;;;;12.75;9.50;;;;;22.44;100.00;100971.19;5081687;27;45444;-78
2021/10/20 00:25:01;;;;;;;;;15.75;13.25;;;;;22.44;100.00;100963.13;5081890;27;45385;-78
2021/10/20 00:27:27;;;;;;;;;14.00;11.50;;;;;22.38;100.00;100950.38;5074313;27;45510;-78
2021/10/20 00:29:53;;;;;;;;;18.00;12.75;;;;;22.34;100.00;100946.34;5072926;27;45378;-78
2021/10/20 00:32:19;;;;;;;;;15.00;12.25;;;;;22.41;100.00;100950.00;5077276;27;45485;-78
2021/10/20 00:34:44;;;;;;;;;12.00;10.00;;;;;22.40;100.00;100953.72;5076204;27;45544;-79
2021/10/20 00:37:10;;;;;;;;;10.75;10.75;;;;;22.49;100.00;100933.00;5080937;27;45527;-79
2021/10/20 00:39:35;;;;;;;;;14.50;13.25;;;;;22.54;100.00;100941.38;5072769;27;45398;-78
2021/10/20 00:42:00;;;;;;;;;9.75;7.75;;;;;22.41;100.00;100950.00;5082335;27;45586;-78
2021/10/20 00:44:26;;;;;;;;;15.25;11.00;;;;;22.22;100.00;100950.41;5080666;27;45485;-78
2021/10/20 00:46:51;;;;;;;;;11.75;9.50;;;;;22.26;100.00;100939.16;5076611;27;45477;-78
2021/10/20 00:49:17;;;;;;;;;11.75;10.50;;;;;22.31;100.00;100926.00;5080055;27;45416;-78
2021/10/20 00:51:42;;;;;;;;;13.75;9.75;;;;;22.30;100.00;100921.66;5079241;27;45561;-78
2021/10/20 00:54:08;;;;;;;;;10.75;10.50;;;;;22.23;100.00;100917.97;5073792;27;45495;-79
2021/10/20 00:56:34;;;;;;;;;11.25;9.75;;;;;22.24;100.00;100924.19;5081224;27;45326;-79
2021/10/20 00:58:59;;;;;;;;;12.50;12.50;;;;;22.23;100.00;100920.66;5073338;27;45357;-79
2021/10/20 01:01:25;;;;;;;;;12.75;9.75;;;;;22.37;100.00;100919.09;5078269;27;45646;-79
2021/10/20 01:03:50;;;;;;;;;11.25;6.75;;;;;22.47;100.00;100916.19;5080411;27;46456;-79
2021/10/20 01:06:17;;;;;;;;;7.75;7.50;;;;;22.49;100.00;100912.28;5084055;27;45411;-78
2021/10/20 01:08:43;;;;;;;;;10.25;10.25;;;;;22.54;100.00;100909.09;5078357;27;45560;-79
2021/10/20 01:11:08;;;;;;;;;12.50;10.75;;;;;;;;5080605;27;45389;-78
2021/10/20 01:13:34;;;;;;;;;13.25;10.25;;;;;22.59;100.00;100910.22;5081749;27;46020;-78
2021/10/20 01:16:01;;;;;;;;;13.50;10.00;;;;;22.57;100.00;100912.28;5076564;27;45470;-79
2021/10/20 01:18:27;;;;;;;;;11.50;9.25;;;;;22.51;100.00;100898.66;5081156;27;45513;-79
2021/10/20 01:21:00;;;;;;;;;11.75;9.75;;;;;22.59;100.00;100896.75;5078919;28;45832;-79
2021/10/20 01:23:27;;;;;;;;;11.25;9.00;;;;;22.61;100.00;100897.44;5078718;27;45542;-78
2021/10/20 01:25:52;;;;;;;;;10.00;9.50;;;;;;;;5081628;27;45332;-78
2021/10/20 01:28:17;;;;;;;;;7.75;7.75;;;;;22.51;100.00;100888.72;5080378;27;45362;-79
2021/10/20 01:30:43;;;;;;;;;10.75;10.25;;;;;22.54;100.00;100885.69;5077734;27;45662;-78
2021/10/20 01:33:10;;;;;;;;;12.00;10.75;;;;;22.61;100.00;100885.81;5079418;27;45894;-78
2021/10/20 01:35:36;;;;;;;;;11.50;8.25;;;;;22.58;100.00;100881.63;5079285;27;45483;-78
2021/10/20 01:38:03;;;;;;;;;10.25;9.25;;;;;22.54;100.00;100876.78;5080484;28;45468;-78
2021/10/20 01:40:28;;;;;;;;;14.50;8.75;;;;;22.45;100.00;100875.16;5081458;27;45549;-79
2021/10/20 01:42:54;;;;;;;;;12.50;10.75;;;;;22.40;100.00;100873.81;5078455;27;45448;-78
2021/10/20 01:45:20;;;;;;;;;11.50;9.50;;;;;22.27;100.00;100878.97;5080931;27;45371;-78
2021/10/20 01:47:46;;;;;;;;;12.25;9.50;;;;;22.33;100.00;100870.16;5080004;27;45495;-79
2021/10/20 01:50:14;;;;;;;;;10.25;10.25;;;;;22.34;100.00;100871.84;5077597;27;45337;-78
2021/10/20 01:52:40;;;;;;;;;13.50;10.50;;;;;22.26;100.00;100860.28;5072875;27;46447;-78
2021/10/20 01:55:11;;;;;;;;;11.75;10.00;;;;;22.29;100.00;100855.41;5080866;27;45255;-78
2021/10/20 01:57:36;;;;;;;;;12.75;9.75;;;;;22.06;100.00;100845.59;5078632;27;45401;-78
2021/10/20 02:00:04;;;;;;;;;9.75;9.75;;;;;21.93;100.00;100846.16;5084528;27;45266;-79
2021/10/20 02:02:29;;;;;;;;;12.75;11.00;;;;;21.85;100.00;100830.06;5080211;27;46728;-79
2021/10/20 02:04:54;;;;;;;;;11.25;9.75;;;;;22.00;100.00;100831.84;5084892;27;45252;-78
2021/10/20 02:07:20;;;;;;;;;10.75;10.75;;;;;22.06;100.00;100816.84;5077686;27;45301;-78
2021/10/20 02:09:45;;;;;;;;;10.00;8.50;;;;;22.12;100.00;100813.47;5081109;27;45557;-78
2021/10/20 02:12:11;;;;;;;;;10.50;10.50;;;;;22.13;100.00;100819.66;5080458;27;45380;-78
2021/10/20 02:14:37;;;;;;;;;10.50;10.00;;;;;21.99;100.00;100813.19;5080975;27;45412;-78
2021/10/20 02:17:03;;;;;;;;;11.75;11.75;;;;;21.96;100.00;100803.59;5078692;27;45500;-79
2021/10/20 02:19:29;;;;;;;;;10.50;10.50;;;;;21.90;100.00;100795.41;5079053;27;45445;-78
2021/10/20 02:21:59;;;;;;;;;11.50;10.75;;;;;22.01;100.00;100801.25;5078397;27;45854;-78
2021/10/20 02:24:24;;;;;;;;;12.00;11.50;;;;;21.97;100.00;100799.91;5073643;27;46067;-79
2021/10/20 02:26:50;;;;;;;;;16.25;11.00;;;;;22.02;100.00;100799.41;5077035;27;45566;-79
2021/10/20 02:29:15;;;;;;;;;12.75;11.75;;;;;22.08;100.00;100785.25;5078033;27;45295;-78
2021/10/20 02:31:46;;;;;;;;;10.75;10.75;;;;;22.13;100.00;100793.59;5079721;27;45420;-79
2021/10/20 02:34:13;;;;;;;;;13.50;10.75;;;;;22.13;100.00;100790.06;5074682;27;45500;-78
2021/10/20 02:36:38;;;;;;;;;12.25;12.25;;;;;22.02;100.00;100769.84;5077844;27;45405;-78
2021/10/20 02:39:03;;;;;;;;;12.75;11.00;;;;;22.01;100.00;100771.69;5080055;27;45443;-78
2021/10/20 02:41:29;;;;;;;;;13.75;12.75;;;;;22.06;100.00;100754.16;5074285;27;45567;-78
2021/10/20 02:43:54;;;;;;;;;13.00;12.25;;;;;22.05;100.00;100766.75;5080416;27;45321;-78
2021/10/20 02:46:19;;;;;;;;;14.00;10.00;;;;;22.11;100.00;100759.84;5081227;27;45353;-78
2021/10/20 02:48:45;;;;;;;;;9.75;9.75;;;;;22.00;100.00;100743.09;5073694;27;45426;-79
2021/10/20 02:51:12;;;;;;;;;11.00;10.25;;;;;22.06;100.00;100748.78;5074325;27;46243;-78
2021/10/20 02:53:37;;;;;;;;;12.50;11.00;;;;;21.96;100.00;100736.38;5080972;27;45623;-78
2021/10/20 02:56:03;;;;;;;;;15.50;13.25;;;;;21.99;100.00;100729.84;5078045;27;45583;-79
2021/10/20 02:58:28;;;;;;;;;13.50;13.00;;;;;22.01;100.00;100734.03;5078908;28;44803;-78
2021/10/20 03:00:53;;;;;;;;;15.75;12.00;;;;;22.05;100.00;100736.34;5079099;27;45366;-78
2021/10/20 03:03:19;;;;;;;;;14.00;11.00;;;;;21.94;100.00;100716.06;5092503;27;45280;-78
2021/10/20 03:05:44;;;;;;;;;14.00;12.25;;;;;21.96;100.00;100731.00;5089855;27;45362;-77
2021/10/20 03:08:11;;;;;;;;;12.00;11.00;;;;;21.94;100.00;100727.63;5085256;27;44898;-79
2021/10/20 03:10:37;;;;;;;;;16.25;15.50;;;;;21.84;100.00;100726.22;5075124;27;45545;-79
2021/10/20 03:13:03;;;;;;;;;14.75;12.00;;;;;21.89;100.00;100739.94;5071381;28;45420;-78
2021/10/20 03:15:28;;;;;;;;;13.50;12.75;;;;;21.91;100.00;100746.00;5071848;27;45522;-77
2021/10/20 03:17:53;;;;;;;;;12.25;10.50;;;;;21.89;100.00;100737.25;5080064;28;45295;-78
2021/10/20 03:20:19;;;;;;;;;16.00;14.00;;;;;21.81;100.00;100756.13;5080139;27;46375;-79
2021/10/20 03:22:46;;;;;;;;;12.00;12.00;;;;;21.90;100.00;100758.59;5078621;27;45553;-79
2021/10/20 03:25:13;;;;;;;;;13.00;13.00;;;;;21.89;100.00;100767.66;5076837;27;45394;-78
2021/10/20 03:27:47;;;;;;;;;15.75;12.75;;;;;21.88;100.00;100767.84;5079326;28;45512;-78
2021/10/20 03:30:14;;;;;;;;;13.75;13.75;;;;;21.81;100.00;100772.25;5082807;27;45431;-78
2021/10/20 03:32:40;;;;;;;;;14.25;13.75;;;;;21.85;100.00;100762.84;5074953;27;45320;-79
2021/10/20 03:35:06;;;;;;;;;13.25;11.25;;;;;21.86;100.00;100754.56;5076252;27;45554;-78
2021/10/20 03:37:32;;;;;;;;;13.00;12.50;;;;;21.79;100.00;100736.63;5069909;28;45569;-79
2021/10/20 03:39:57;;;;;;;;;12.25;10.50;;;;;21.73;100.00;100738.19;5067328;27;48065;-79
2021/10/20 03:42:23;;;;;;;;;12.50;11.50;;;;;21.73;100.00;100729.28;5079851;28;45289;-79
2021/10/20 03:44:51;;;;;;;;;16.50;13.75;;;;;21.76;100.00;100728.94;5080220;27;45244;-79
2021/10/20 03:47:16;;;;;;;;;13.25;9.50;;;;;21.67;100.00;100730.00;5079812;27;45507;-79
2021/10/20 03:49:42;;;;;;;;;12.00;12.00;;;;;21.67;100.00;100740.75;5071919;27;47181;-79
2021/10/20 03:52:07;;;;;;;;;13.75;12.00;;;;;21.63;100.00;100729.50;5075737;28;45336;-79
2021/10/20 03:54:32;;;;;;;;;11.00;10.25;;;;;21.67;100.00;100730.00;5081439;27;45394;-79
2021/10/20 03:56:58;;;;;;;;;11.75;10.75;;;;;21.59;100.00;100728.16;5085367;27;45623;-79
2021/10/20 03:59:23;;;;;;;;;12.50;12.50;;;;;21.67;100.00;100728.97;5081272;27;45504;-79
2021/10/20 04:01:48;;;;;;;;;11.25;10.75;;;;;21.65;100.00;100733.69;5083287;27;45436;-81
2021/10/20 04:04:14;;;;;;;;;15.25;13.00;;;;;21.68;100.00;100732.47;5080611;27;45480;-82
2021/10/20 04:06:39;;;;;;;;;14.00;11.50;;;;;21.66;100.00;100734.53;5081617;27;45448;-81
2021/10/20 04:09:05;;;;;;;;;15.25;12.75;;;;;21.66;100.00;100718.41;5082827;27;46046;-82
2021/10/20 04:11:31;;;;;;;;;13.75;12.00;;;;;21.75;100.00;100703.91;5079091;27;45317;-82
2021/10/20 04:13:56;;;;;;;;;11.50;11.00;;;;;21.71;100.00;100688.31;5066343;27;45568;-80
2021/10/20 04:16:21;;;;;;;;;17.00;13.75;;;;;21.69;100.00;100684.94;5077965;27;45490;-80
2021/10/20 04:18:47;;;;;;;;;11.50;10.50;;;;;21.70;100.00;100674.03;5085069;27;45232;-80
2021/10/20 04:21:12;;;;;;;;;14.00;13.00;;;;;21.77;100.00;100683.03;5083593;27;45301;-81
2021/10/20 04:23:37;;;;;;;;;9.00;8.75;;;;;21.64;100.00;100677.44;5079284;27;45488;-78
2021/10/20 04:26:03;;;;;;;;;14.00;12.00;;;;;21.54;100.00;100677.66;5079302;27;45247;-80
2021/10/20 04:28:28;;;;;;;;;13.50;12.00;;;;;21.59;100.00;100690.53;5085470;27;45479;-80
2021/10/20 04:30:54;;;;;;;;;12.25;12.00;;;;;21.59;100.00;100688.69;5087482;27;45295;-80
2021/10/20 04:33:19;;;;;;;;;13.50;12.50;;;;;21.62;100.00;100682.13;5088293;27;45246;-80
2021/10/20 04:35:44;;;;;;;;;16.00;11.00;;;;;21.61;100.00;100675.91;5086821;27;45499;-80
2021/10/20 04:38:10;;;;;;;;;12.50;10.75;;;;;21.61;100.00;100669.72;5085661;27;46593;-80
2021/10/20 04:40:35;;;;;;;;;11.25;8.50;;;;;21.65;100.00;100663.81;5086011;27;45416;-79
2021/10/20 04:43:01;;;;;;;;;13.00;12.25;;;;;21.64;100.00;100678.28;5084970;27;45493;-78
2021/10/20 04:45:26;;;;;;;;;13.50;11.50;;;;;21.56;100.00;100686.38;5084715;27;45235;-80
2021/10/20 04:47:51;;;;;;;;;15.75;12.75;;;;;21.56;100.00;100702.50;5082267;27;45443;-80
2021/10/20 04:50:18;;;;;;;;;13.67;12.00;;;;;21.50;100.00;100697.81;5082283;27;45483;-80
2021/10/20 04:52:44;;;;;;;;;14.00;12.50;;;;;21.56;100.00;100694.44;5079713;27;45465;-79
2021/10/20 04:55:11;;;;;;;;;15.25;13.00;;;;;21.48;100.00;100693.66;5081009;27;45500;-79
2021/10/20 04:57:36;;;;;;;;;12.75;12.75;;;;;21.44;100.00;100689.63;5082755;27;46362;-79
2021/10/20 05:00:04;;;;;;;;;14.50;12.75;;;;;21.46;100.00;100701.03;5084504;27;45464;-79
2021/10/20 05:02:35;;;;;;;;;13.00;12.25;;;;;21.44;100.00;100703.88;5084434;27;45173;-78
2021/10/20 05:05:04;;;;;;;;;16.00;13.00;;;;;21.42;100.00;100707.75;5086404;27;45432;-79
2021/10/20 05:07:30;;;;;;;;;14.50;13.00;;;;;21.38;100.00;100712.66;5085045;27;47720;-79
2021/10/20 05:09:55;;;;;;;;;15.00;13.00;;;;;21.50;100.00;100700.50;5083319;27;45952;-78
2021/10/20 05:12:22;;;;;;;;;16.50;12.25;;;;;21.47;100.00;100698.19;5082095;27;45451;-79
2021/10/20 05:14:47;;;;;;;;;12.00;12.00;;;;;21.52;100.00;100701.16;5079987;27;45396;-79
2021/10/20 05:17:13;;;;;;;;;11.75;10.25;;;;;21.51;100.00;100679.84;5076642;27;46511;-79
2021/10/20 05:19:38;;;;;;;;;12.00;11.25;;;;;21.57;100.00;100695.28;5081137;27;45419;-79
2021/10/20 05:22:06;;;;;;;;;12.00;11.50;;;;;21.57;100.00;100676.47;5082307;27;45701;-79
2021/10/20 05:24:31;;;;;;;;;15.00;15.00;;;;;21.55;100.00;100681.16;5078109;27;45434;-79
2021/10/20 05:26:57;;;;;;;;;16.00;14.00;;;;;21.54;100.00;100674.97;5082258;27;45401;-80
2021/10/20 05:29:22;;;;;;;;;14.25;12.50;;;;;21.57;100.00;100665.72;5080819;27;45416;-80
2021/10/20 05:31:48;;;;;;;;;12.50;10.75;;;;;21.54;100.00;100666.06;5074420;27;45433;-80
2021/10/20 05:34:14;;;;;;;;;14.25;12.00;;;;;21.59;100.00;100660.97;5072592;27;45383;-80
2021/10/20 05:36:39;;;;;;;;;13.00;12.50;;;;;21.65;100.00;100646.84;5079644;27;47145;-81
2021/10/20 05:39:05;;;;;;;;;12.00;11.75;;;;;21.60;100.00;100642.00;5079530;27;45399;-79
2021/10/20 05:41:31;;;;;;;;;15.50;12.50;;;;;21.63;100.00;100638.97;5077561;27;45419;-81
2021/10/20 05:43:56;;;;;;;;;14.00;13.00;;;;;21.60;100.00;100627.72;5085123;27;45409;-82
2021/10/20 05:46:22;;;;;;;;;13.25;12.00;;;;;21.59;100.00;100626.03;5068202;27;45162;-80
2021/10/20 05:48:47;;;;;;;;;12.00;12.00;;;;;21.56;100.00;100621.03;5076534;27;45534;-81
2021/10/20 05:51:12;;;;;;;;;13.50;12.00;;;;;21.58;100.00;100605.56;5079355;27;45504;-80
2021/10/20 05:53:38;;;;;;;;;13.75;9.00;;;;;21.52;100.00;100620.56;5069570;27;45335;-81
2021/10/20 05:56:05;;;;;;;;;14.25;12.25;;;;;21.59;100.00;100602.69;5074580;27;45397;-81
2021/10/20 05:58:31;;;;;;;;;12.50;10.75;;;;;21.55;100.00;100609.47;5068023;27;45177;-81
2021/10/20 06:00:56;;;;;;;;;14.50;12.50;;;;;21.38;100.00;100624.00;5072869;27;45591;-80
2021/10/20 06:03:22;;;;;;;;;13.25;13.25;;;;;21.38;100.00;100605.19;5077566;27;45411;-79
2021/10/20 06:05:47;;;;;;;;;14.75;14.50;;;;;21.41;100.00;100612.03;5078288;27;46430;-79
2021/10/20 06:08:13;;;;;;;;;15.75;12.00;;;;;21.53;100.00;100605.28;5072829;27;45498;-80
2021/10/20 06:10:38;;;;;;;;;14.00;12.75;;;;;21.56;100.00;100616.50;5056750;28;45572;-79
2021/10/20 06:13:05;;;;;;;;;14.50;14.25;;;;;21.42;100.00;100605.66;5059501;28;45441;-79
2021/10/20 06:15:31;;;;;;;;;17.25;14.75;;;;;21.46;100.00;100607.84;5056928;28;45320;-79
2021/10/20 06:17:56;;;;;;;;;15.50;14.50;;;;;21.47;100.00;100609.50;5057361;28;45348;-79
2021/10/20 06:20:22;;;;;;;;;15.50;12.50;;;;;21.52;100.00;100593.69;5057181;28;45370;-79
2021/10/20 06:22:47;;;;;;;;;14.25;13.75;;;;;21.45;100.00;100565.03;5054498;28;45608;-79
2021/10/20 06:25:13;;;;;;;;;15.75;15.25;;;;;21.52;100.00;100561.44;5057317;28;45475;-78
2021/10/20 06:27:40;;;;;;;;;13.75;13.00;;;;;21.58;100.00;100552.66;5059480;28;45367;-78
2021/10/20 06:30:06;;;;;;;;;14.00;12.75;;;;;21.54;100.00;100574.69;5055560;28;45361;-79
2021/10/20 06:32:31;;;;;;;;;14.25;13.50;;;;;21.49;100.00;100553.72;5058607;28;45206;-79
2021/10/20 06:34:56;;;;;;;;;15.75;14.00;;;;;21.51;100.00;100564.28;5070207;28;45519;-81
2021/10/20 06:37:22;;;;;;;;;14.00;12.25;;;;;21.48;100.00;100567.38;5064668;28;45175;-80
2021/10/20 06:39:47;;;;;;;;;16.25;13.25;;;;;21.59;100.00;100564.25;5054160;28;45351;-78
2021/10/20 06:42:12;;;;;;;;;15.00;12.50;;;;;21.63;100.00;100574.47;5057717;28;45517;-78
2021/10/20 06:44:38;;;;;;;;;12.25;12.25;;;;;22.86;100.00;100558.81;5041167;28;46149;-79
2021/10/20 06:47:04;;;;;;;;;16.75;15.00;;;;;23.54;100.00;100570.22;5059492;28;45618;-79
2021/10/20 06:49:29;;;;;;;;;11.50;10.50;;;;;23.00;100.00;100558.00;5059456;28;45345;-79
2021/10/20 06:51:54;;;;;;;;;14.75;13.00;;;;;22.90;100.00;100565.53;5041981;28;45352;-79
2021/10/20 06:54:20;;;;;;;;;14.25;13.75;;;;;22.81;100.00;100547.78;5062692;28;45400;-79
2021/10/20 06:56:47;;;;;;;;;21.00;16.50;;;;;22.43;100.00;100556.97;5064606;28;45351;-79
2021/10/20 06:59:13;;;;;;;;;16.75;14.25;;;;;22.31;100.00;100546.66;5058195;28;45429;-78
2021/10/20 07:01:38;;;;;;;;;19.75;17.50;;;;;22.27;100.00;100549.91;5063816;28;45300;-78
2021/10/20 07:04:04;;;;;;;;;15.25;13.50;;;;;22.29;100.00;100546.03;5062769;28;45471;-78
2021/10/20 07:06:29;;;;;;;;;17.00;16.00;;;;;22.21;100.00;100539.88;5060797;28;44788;-79
2021/10/20 07:08:58;;;;;;;;;20.00;15.25;;;;;22.20;100.00;100530.16;5067979;27;45470;-79
2021/10/20 07:11:24;;;;;;;;;18.50;14.75;;;;;22.18;100.00;100533.00;5080775;27;45408;-78
2021/10/20 07:13:50;;;;;;;;;16.75;15.00;;;;;22.28;100.00;100535.44;5079887;28;45512;-78
2021/10/20 07:16:16;;;;;;;;;16.75;16.00;;;;;22.26;100.00;100532.09;5079094;27;45631;-79
2021/10/20 07:18:42;;;;;;;;;17.50;16.75;;;;;22.43;100.00;100541.66;5095022;27;45540;-79
2021/10/20 07:21:07;;;;;;;;;11.00;11.00;;;;;22.34;100.00;100534.69;5079392;28;45505;-79
2021/10/20 07:23:33;;;;;;;;;13.75;11.25;;;;;22.36;100.00;100530.81;5080443;27;45465;-78
2021/10/20 07:25:58;;;;;;;;;19.25;16.75;;;;;22.38;100.00;100525.25;5081074;27;45441;-79
2021/10/20 07:28:24;;;;;;;;;16.00;15.50;;;;;22.40;100.00;100520.50;5083387;27;45363;-79
2021/10/20 07:30:50;;;;;;;;;17.50;17.25;;;;;22.47;100.00;100513.38;5083875;27;45459;-79
2021/10/20 07:33:15;;;;;;;;;18.25;16.50;;;;;22.60;100.00;100524.28;5081965;27;47069;-78
2021/10/20 07:35:41;;;;;;;;;17.50;17.00;;;;;22.61;100.00;100520.59;5083507;28;45256;-78
2021/10/20 07:38:06;;;;;;;;;20.25;15.00;;;;;22.56;100.00;100520.31;5083884;27;45267;-78
2021/10/20 07:40:32;;;;;;;;;19.50;17.75;;;;;22.59;100.00;100511.00;5084572;27;45564;-79
2021/10/20 07:42:57;;;;;;;;;20.75;16.00;;;;;22.49;100.00;100540.09;5084993;27;47108;-78
2021/10/20 07:45:24;;;;;;;;;16.25;15.00;;;;;22.57;100.00;100546.22;5103591;27;45224;-78
2021/10/20 07:47:50;;;;;;;;;19.50;16.25;;;;;22.48;100.00;100538.41;5103804;27;45245;-78
2021/10/20 07:50:18;;;;;;;;;19.00;16.25;;;;;22.48;100.00;100527.66;5104373;27;45488;-78
2021/10/20 07:52:48;;;;;;;;;18.00;16.25;;;;;22.46;100.00;100556.59;5107414;27;45455;-78
2021/10/20 07:55:16;;;;;;;;;18.25;16.00;;;;;22.56;100.00;100559.84;5108024;27;45362;-78
2021/10/20 07:57:42;;;;;;;;;17.75;15.25;;;;;22.68;100.00;100553.81;5103783;27;45468;-78
2021/10/20 08:00:08;;;;;;;;;19.00;17.75;;;;;22.73;100.00;100570.25;5105722;27;45485;-78
2021/10/20 08:02:33;;;;;;;;;14.75;14.00;;;;;22.68;100.00;100561.88;5085816;27;47333;-78
2021/10/20 08:04:59;;;;;;;;;17.25;15.00;;;;;22.56;100.00;100566.06;5104605;27;45490;-78
2021/10/20 08:07:24;;;;;;;;;18.00;15.25;;;;;22.50;100.00;100579.41;5104619;27;45565;-78
2021/10/20 08:09:49;;;;;;;;;21.00;16.75;;;;;22.58;100.00;100571.28;5104545;27;45484;-79
2021/10/20 08:12:19;;;;;;;;;14.25;13.50;;;;;22.53;100.00;100565.59;5104422;27;45487;-78
2021/10/20 08:14:45;;;;;;;;;16.00;14.50;;;;;22.75;100.00;100572.78;5104025;27;45495;-78
2021/10/20 08:17:11;;;;;;;;;16.00;14.00;;;;;22.76;100.00;100572.56;5102968;27;45795;-78
2021/10/20 08:19:36;;;;;;;;;19.00;14.75;;;;;22.76;100.00;100569.88;5103157;27;45665;-78
2021/10/20 08:22:02;;;;;;;;;20.25;19.00;;;;;22.73;100.00;100583.72;5101721;27;45457;-78
2021/10/20 08:24:28;;;;;;;;;17.00;15.25;;;;;22.80;100.00;100583.81;5101829;27;45395;-78
2021/10/20 08:26:53;;;;;;;;;16.50;16.00;;;;;22.80;100.00;100591.06;5099344;27;45440;-79
2021/10/20 08:29:19;;;;;;;;;15.00;13.00;;;;;22.85;100.00;100580.59;5099444;27;45448;-79
2021/10/20 08:31:44;;;;;;;;;15.25;15.25;;;;;22.83;100.00;100593.38;5084083;27;47107;-78
2021/10/20 08:34:10;;;;;;;;;17.50;14.75;;;;;22.59;100.00;100592.59;5098759;27;45485;-79
2021/10/20 08:36:35;;;;;;;;;18.00;15.25;;;;;22.46;100.00;100587.03;5103105;27;45445;-79
2021/10/20 08:39:00;;;;;;;;;20.00;14.75;;;;;22.58;100.00;100587.44;5102126;27;45368;-79
2021/10/20 08:41:26;;;;;;;;;16.00;14.75;;;;;22.64;100.00;100573.22;5084762;27;47170;-79
2021/10/20 08:43:52;;;;;;;;;18.75;16.75;;;;;22.75;100.00;100580.88;5086104;27;45343;-78
2021/10/20 08:46:21;;;;;;;;;17.75;16.25;;;;;22.71;100.00;100569.59;5087292;27;45458;-78
2021/10/20 08:48:47;;;;;;;;;16.00;14.50;;;;;22.65;100.00;100572.19;5105928;27;45489;-78
2021/10/20 08:51:16;;;;;;;;;16.75;14.25;;;;;22.65;100.00;100583.81;5088570;27;47090;-78
2021/10/20 08:53:41;;;;;;;;;23.50;15.75;;;;;22.62;100.00;100586.03;5089054;27;45300;-79
2021/10/20 08:56:06;;;;;;;;;17.75;17.75;;;;;22.59;100.00;100592.59;5106955;27;45377;-78
2021/10/20 08:58:32;;;;;;;;;19.00;16.00;;;;;22.75;100.00;100587.09;5086411;27;45842;-78
2021/10/20 09:00:57;;;;;;;;;18.75;15.75;;;;;22.77;100.00;100584.19;5102753;27;45250;-79
2021/10/20 09:03:23;;;;;;;;;17.75;16.25;;;;;22.89;100.00;100577.31;5084205;27;45430;-78
2021/10/20 09:05:48;;;;;;;;;18.50;17.75;;;;;22.85;100.00;100583.28;5084607;27;45706;-79
2021/10/20 09:08:14;;;;;;;;;25.00;17.75;;;;;22.88;100.00;100594.50;5102070;27;45314;-79
2021/10/20 09:10:39;;;;;;;;;19.25;17.50;;;;;22.79;100.00;100584.84;5102420;27;46183;-79
2021/10/20 09:13:05;;;;;;;;;16.75;16.00;;;;;22.78;100.00;100585.84;5102784;27;45377;-79
2021/10/20 09:15:34;;;;;;;;;19.75;16.75;;;;;22.62;100.00;100575.25;5102655;27;45681;-79
2021/10/20 09:18:09;;;;;;;;;20.25;16.75;;;;;22.71;100.00;100574.13;5102895;27;45547;-79
2021/10/20 09:20:34;;;;;;;;;16.75;16.50;;;;;22.73;100.00;100564.88;5085933;27;46496;-80
2021/10/20 09:23:06;;;;;;;;;17.00;14.75;;;;;22.72;100.00;100581.19;5104376;27;45499;-79
2021/10/20 09:25:47;;;;;;;;;19.00;16.50;;;;;22.85;100.00;100570.66;5103805;27;45353;-79
2021/10/20 09:28:21;;;;;;;;;18.75;16.75;;;;;22.90;100.00;100572.75;5105923;27;45247;-79
2021/10/20 09:30:47;;;;;;;;;19.75;17.00;;;;;23.05;100.00;100574.41;5105820;27;46161;-80
2021/10/20 09:33:13;;;;;;;;;16.50;16.50;;;;;23.02;100.00;100566.72;5106145;27;45543;-79
2021/10/20 09:35:39;;;;;;;;;17.50;14.50;;;;;23.16;100.00;100559.63;5106148;27;45441;-82
2021/10/20 09:38:06;;;;;;;;;18.00;15.75;;;;;23.22;100.00;100564.22;5103491;27;45242;-80
2021/10/20 09:40:49;;;;;;;;;17.75;16.00;;;;;23.05;100.00;100568.19;5104128;27;46236;-80
2021/10/20 09:43:20;;;;;;;;;21.25;17.00;;;;;23.31;100.00;100564.97;5104129;27;45507;-82
2021/10/20 09:45:47;;;;;;;;;17.25;15.75;;;;;23.22;100.00;100563.44;5103912;27;45409;-79
2021/10/20 09:48:24;;;;;;;;;20.50;20.50;;;;;23.30;100.00;100564.16;5104095;27;45396;-81
2021/10/20 09:51:22;;;;;;;;;23.50;18.50;;;;;23.44;100.00;100574.03;5101355;27;46185;-81
2021/10/20 09:53:51;;;;;;;;;21.25;19.75;;;;;23.51;100.00;100571.44;5056352;27;45543;-79
2021/10/20 09:56:25;;;;;;;;;17.50;16.50;;;;;23.47;100.00;100570.13;5102617;27;45364;-80
2021/10/20 09:58:52;;;;;;;;;19.25;19.25;;;;;23.48;100.00;100569.09;5101994;27;45475;-81
2021/10/20 10:01:19;;;;;;;;;15.50;14.25;;;;;23.45;100.00;100564.91;5102335;27;45339;-80
2021/10/20 10:03:45;;;;;;;;;18.75;17.00;;;;;23.56;100.00;100550.13;5102332;27;45334;-79
2021/10/20 10:06:11;;;;;;;;;18.00;16.50;;;;;23.66;100.00;100552.53;5085072;27;45327;-80
2021/10/20 10:08:36;;;;;;;;;20.25;17.00;;;;;23.62;100.00;100553.91;5112019;27;45585;-79
2021/10/20 10:11:02;;;;;;;;;19.50;16.00;;;;;23.70;100.00;100543.00;5122692;27;45147;-80
2021/10/20 10:13:31;;;;;;;;;18.25;15.00;;;;;23.74;100.00;100534.34;5105131;27;45418;-80
2021/10/20 10:16:00;;;;;;;;;17.00;14.75;;;;;23.64;100.00;100547.31;5107555;27;45389;-80
2021/10/20 10:18:27;;;;;;;;;20.00;17.50;;;;;23.77;100.00;100538.50;5100987;27;45314;-80
2021/10/20 10:20:53;;;;;;;;;19.25;15.75;;;;;23.86;100.00;100542.72;5082797;27;47081;-79
2021/10/20 10:23:24;;;;;;;;;17.75;16.00;;;;;23.81;100.00;100539.78;5101246;27;45319;-80
2021/10/20 10:26:01;;;;;;;;;15.50;13.25;;;;;23.93;100.00;100538.25;5101365;27;45372;-80
2021/10/20 10:28:31;;;;;;;;;18.25;14.00;;;;;23.93;100.00;100532.00;5101038;27;45416;-79
2021/10/20 10:31:01;;;;;;;;;21.00;19.00;;;;;23.82;100.00;100536.91;5101638;27;46739;-79
2021/10/20 10:33:29;;;;;;;;;17.75;15.75;;;;;23.96;100.00;100520.81;5100420;27;45771;-79
2021/10/20 10:36:19;;;;;;;;;18.50;14.75;;;;;23.70;100.00;100535.75;5098737;27;45449;-80
2021/10/20 10:39:04;;;;;;;;;17.50;14.75;;;;;23.71;100.00;100525.78;5100309;27;45486;-80
2021/10/20 10:41:35;;;;;;;;;15.00;14.75;;;;;23.73;100.00;100521.06;5100544;27;45373;-80
2021/10/20 10:44:10;;;;;;;;;19.25;15.00;;;;;23.94;100.00;100528.28;5080507;27;45842;-80
2021/10/20 10:46:39;;;;;;;;;18.00;15.50;;;;;23.91;100.00;100518.72;5100555;27;45466;-80
2021/10/20 10:49:24;;;;;;;;;18.75;14.75;;;;;23.42;100.00;100510.56;5081935;27;45387;-80
2021/10/20 10:52:35;;;;;;;;;16.25;14.00;;;;;23.45;100.00;100502.94;5100759;27;46311;-80
2021/10/20 10:55:18;;;;;;;;;14.00;12.75;;;;;23.33;100.00;100511.72;5032467;27;45661;-79
2021/10/20 10:57:49;;;;;;;;;15.25;12.25;;;;;23.65;100.00;100492.38;5094153;27;45380;-80
2021/10/20 11:00:17;;;;;;;;;10.25;8.75;;;;;23.79;100.00;100493.28;5099748;27;45663;-80
2021/10/20 11:02:52;;;;;;;;;14.50;11.25;;;;;23.95;100.00;100498.38;5104944;27;46071;-80